Edgewood, Indiana
Current Conditions -  °F | °C
As of 6:53 PM on Tuesday 25 Nov 2014 (Local Time) from KBMG Reporting Station
Overcast Overcast  
Wind Chill: 31°   Ceiling: 1700
Heat Index: 31°   Visibility: 10mi
Dew Point: 25°   Wind: 3mph
Humidity: 79%   Direction: 270°W
Pressure: 30.17"   Gusts: NA
Location:  38.8737°N, 86.4563°W
Report Text: KBMG 252353Z 27003KT 10SM OVC017 M01/M04 A3017 RMK AO2 SLP224 T10061039 10011 21006 53010
Loading
Personal Weather Stations






























Interactive Weather Map New forecast layout! Learn more

10-Day Weather Forecast

Advertisements
Track Severe Weather on mobile